sensor_id;sensor_type;location;lat;lon;timestamp;P1;durP1;ratioP1;P2;durP2;ratioP2
26253;SDS011;53339;51.378;0.094;2023-07-22T00:00:31;4.95;;;3.33;;
26253;SDS011;53339;51.378;0.094;2023-07-22T00:03:02;6.70;;;4.63;;
26253;SDS011;53339;51.378;0.094;2023-07-22T00:05:34;7.00;;;3.38;;
26253;SDS011;53339;51.378;0.094;2023-07-22T00:08:16;4.13;;;3.47;;
26253;SDS011;53339;51.378;0.094;2023-07-22T00:10:51;5.88;;;3.28;;
26253;SDS011;53339;51.378;0.094;2023-07-22T00:13:19;5.50;;;3.78;;
26253;SDS011;53339;51.378;0.094;2023-07-22T00:15:59;4.53;;;3.83;;
26253;SDS011;53339;51.378;0.094;2023-07-22T00:18:28;5.18;;;3.30;;
26253;SDS011;53339;51.378;0.094;2023-07-22T00:21:04;5.38;;;3.50;;
26253;SDS011;53339;51.378;0.094;2023-07-22T00:23:54;7.35;;;4.03;;
26253;SDS011;53339;51.378;0.094;2023-07-22T00:26:31;4.82;;;1.52;;
26253;SDS011;53339;51.378;0.094;2023-07-22T00:29:00;6.57;;;3.63;;
26253;SDS011;53339;51.378;0.094;2023-07-22T00:31:44;5.70;;;2.70;;
26253;SDS011;53339;51.378;0.094;2023-07-22T00:34:14;7.40;;;3.15;;
26253;SDS011;53339;51.378;0.094;2023-07-22T00:37:03;5.90;;;3.38;;
26253;SDS011;53339;51.378;0.094;2023-07-22T00:39:41;3.95;;;2.88;;
26253;SDS011;53339;51.378;0.094;2023-07-22T00:42:16;7.88;;;3.85;;
26253;SDS011;53339;51.378;0.094;2023-07-22T00:44:44;4.18;;;3.70;;
26253;SDS011;53339;51.378;0.094;2023-07-22T00:47:14;6.15;;;3.35;;
26253;SDS011;53339;51.378;0.094;2023-07-22T00:49:47;6.45;;;3.70;;
26253;SDS011;53339;51.378;0.094;2023-07-22T00:52:47;3.38;;;2.58;;
26253;SDS011;53339;51.378;0.094;2023-07-22T00:55:22;5.15;;;3.38;;
26253;SDS011;53339;51.378;0.094;2023-07-22T00:57:57;4.15;;;3.28;;
26253;SDS011;53339;51.378;0.094;2023-07-22T01:00:47;4.65;;;2.92;;
26253;SDS011;53339;51.378;0.094;2023-07-22T01:03:17;4.70;;;2.60;;
26253;SDS011;53339;51.378;0.094;2023-07-22T01:06:01;5.90;;;4.07;;
26253;SDS011;53339;51.378;0.094;2023-07-22T01:08:40;4.32;;;2.35;;
26253;SDS011;53339;51.378;0.094;2023-07-22T01:11:09;5.85;;;3.60;;
26253;SDS011;53339;51.378;0.094;2023-07-22T01:13:43;3.20;;;2.72;;
26253;SDS011;53339;51.378;0.094;2023-07-22T01:16:13;4.70;;;3.65;;
26253;SDS011;53339;51.378;0.094;2023-07-22T01:18:59;3.97;;;2.83;;
26253;SDS011;53339;51.378;0.094;2023-07-22T01:21:43;5.95;;;3.42;;
26253;SDS011;53339;51.378;0.094;2023-07-22T01:24:30;4.78;;;3.17;;
26253;SDS011;53339;51.378;0.094;2023-07-22T01:27:23;5.90;;;3.38;;
26253;SDS011;53339;51.378;0.094;2023-07-22T01:30:08;3.10;;;2.67;;
26253;SDS011;53339;51.378;0.094;2023-07-22T01:32:37;3.20;;;1.27;;
26253;SDS011;53339;51.378;0.094;2023-07-22T01:35:11;2.60;;;1.35;;
26253;SDS011;53339;51.378;0.094;2023-07-22T01:37:44;6.05;;;3.00;;
26253;SDS011;53339;51.378;0.094;2023-07-22T01:40:24;4.10;;;3.38;;
26253;SDS011;53339;51.378;0.094;2023-07-22T01:43:18;3.67;;;2.72;;
26253;SDS011;53339;51.378;0.094;2023-07-22T01:45:48;3.63;;;2.45;;
26253;SDS011;53339;51.378;0.094;2023-07-22T01:48:20;3.85;;;3.30;;
26253;SDS011;53339;51.378;0.094;2023-07-22T01:50:55;3.70;;;2.53;;
26253;SDS011;53339;51.378;0.094;2023-07-22T01:53:32;2.83;;;1.20;;
26253;SDS011;53339;51.378;0.094;2023-07-22T01:56:05;4.80;;;3.38;;
26253;SDS011;53339;51.378;0.094;2023-07-22T01:58:34;5.50;;;3.05;;
26253;SDS011;53339;51.378;0.094;2023-07-22T02:01:04;7.63;;;3.05;;
26253;SDS011;53339;51.378;0.094;2023-07-22T02:03:37;3.90;;;2.85;;
26253;SDS011;53339;51.378;0.094;2023-07-22T02:06:19;5.85;;;1.77;;
26253;SDS011;53339;51.378;0.094;2023-07-22T02:08:51;3.00;;;1.27;;
26253;SDS011;53339;51.378;0.094;2023-07-22T02:11:22;3.63;;;1.10;;
26253;SDS011;53339;51.378;0.094;2023-07-22T02:13:52;4.32;;;3.22;;
26253;SDS011;53339;51.378;0.094;2023-07-22T02:16:41;5.68;;;5.15;;
26253;SDS011;53339;51.378;0.094;2023-07-22T02:19:14;5.15;;;3.15;;
26253;SDS011;53339;51.378;0.094;2023-07-22T02:21:55;3.58;;;1.33;;
26253;SDS011;53339;51.378;0.094;2023-07-22T02:24:32;3.42;;;2.80;;
26253;SDS011;53339;51.378;0.094;2023-07-22T02:27:23;3.50;;;2.33;;
26253;SDS011;53339;51.378;0.094;2023-07-22T02:29:53;6.55;;;3.88;;
26253;SDS011;53339;51.378;0.094;2023-07-22T02:32:22;6.03;;;3.40;;
26253;SDS011;53339;51.378;0.094;2023-07-22T02:35:01;5.95;;;3.10;;
26253;SDS011;53339;51.378;0.094;2023-07-22T02:37:36;3.55;;;3.03;;
26253;SDS011;53339;51.378;0.094;2023-07-22T02:40:07;5.30;;;3.05;;
26253;SDS011;53339;51.378;0.094;2023-07-22T02:42:44;4.18;;;2.70;;
26253;SDS011;53339;51.378;0.094;2023-07-22T02:45:14;3.80;;;3.50;;
26253;SDS011;53339;51.378;0.094;2023-07-22T02:47:50;5.97;;;3.10;;
26253;SDS011;53339;51.378;0.094;2023-07-22T02:50:18;5.03;;;3.15;;
26253;SDS011;53339;51.378;0.094;2023-07-22T02:52:47;5.07;;;4.22;;
26253;SDS011;53339;51.378;0.094;2023-07-22T02:55:21;5.05;;;3.13;;
26253;SDS011;53339;51.378;0.094;2023-07-22T02:57:55;3.75;;;2.08;;
26253;SDS011;53339;51.378;0.094;2023-07-22T03:00:25;5.38;;;3.17;;
26253;SDS011;53339;51.378;0.094;2023-07-22T03:02:54;4.22;;;1.50;;
26253;SDS011;53339;51.378;0.094;2023-07-22T03:05:29;5.72;;;3.63;;
26253;SDS011;53339;51.378;0.094;2023-07-22T03:07:59;4.95;;;2.90;;
26253;SDS011;53339;51.378;0.094;2023-07-22T03:10:44;5.00;;;3.55;;
26253;SDS011;53339;51.378;0.094;2023-07-22T03:13:17;6.82;;;3.17;;
26253;SDS011;53339;51.378;0.094;2023-07-22T03:15:46;4.85;;;3.15;;
26253;SDS011;53339;51.378;0.094;2023-07-22T03:18:17;7.38;;;3.30;;
26253;SDS011;53339;51.378;0.094;2023-07-22T03:20:45;4.55;;;2.95;;
26253;SDS011;53339;51.378;0.094;2023-07-22T03:23:13;6.15;;;4.60;;
26253;SDS011;53339;51.378;0.094;2023-07-22T03:25:47;4.85;;;3.33;;
26253;SDS011;53339;51.378;0.094;2023-07-22T03:28:19;6.13;;;3.92;;
26253;SDS011;53339;51.378;0.094;2023-07-22T03:30:52;4.40;;;3.67;;
26253;SDS011;53339;51.378;0.094;2023-07-22T03:33:28;5.75;;;3.47;;
26253;SDS011;53339;51.378;0.094;2023-07-22T03:35:57;4.72;;;1.77;;
26253;SDS011;53339;51.378;0.094;2023-07-22T03:38:54;5.45;;;3.70;;
26253;SDS011;53339;51.378;0.094;2023-07-22T03:41:33;5.38;;;3.75;;
26253;SDS011;53339;51.378;0.094;2023-07-22T03:44:01;5.32;;;3.53;;
26253;SDS011;53339;51.378;0.094;2023-07-22T03:46:37;6.28;;;3.85;;
26253;SDS011;53339;51.378;0.094;2023-07-22T03:49:06;4.75;;;3.22;;
26253;SDS011;53339;51.378;0.094;2023-07-22T03:51:34;6.03;;;2.70;;
26253;SDS011;53339;51.378;0.094;2023-07-22T03:54:02;5.32;;;3.60;;
26253;SDS011;53339;51.378;0.094;2023-07-22T03:56:32;4.82;;;4.03;;
26253;SDS011;53339;51.378;0.094;2023-07-22T03:59:06;4.75;;;3.10;;
26253;SDS011;53339;51.378;0.094;2023-07-22T04:01:57;5.28;;;3.28;;
26253;SDS011;53339;51.378;0.094;2023-07-22T04:04:42;3.42;;;1.30;;
26253;SDS011;53339;51.378;0.094;2023-07-22T04:09:40;4.75;;;3.45;;
26253;SDS011;53339;51.378;0.094;2023-07-22T04:12:13;3.50;;;3.03;;
26253;SDS011;53339;51.378;0.094;2023-07-22T04:14:45;5.82;;;3.28;;
26253;SDS011;53339;51.378;0.094;2023-07-22T04:17:13;3.80;;;3.00;;
26253;SDS011;53339;51.378;0.094;2023-07-22T04:19:53;4.60;;;2.95;;
26253;SDS011;53339;51.378;0.094;2023-07-22T04:22:27;4.13;;;3.28;;
26253;SDS011;53339;51.378;0.094;2023-07-22T04:25:03;4.57;;;1.75;;
26253;SDS011;53339;51.378;0.094;2023-07-22T04:27:42;5.22;;;3.03;;
26253;SDS011;53339;51.378;0.094;2023-07-22T04:30:22;3.95;;;2.80;;
26253;SDS011;53339;51.378;0.094;2023-07-22T04:32:51;4.22;;;2.53;;
26253;SDS011;53339;51.378;0.094;2023-07-22T04:35:24;5.93;;;3.45;;
26253;SDS011;53339;51.378;0.094;2023-07-22T04:37:55;6.70;;;3.25;;
26253;SDS011;53339;51.378;0.094;2023-07-22T04:40:34;5.10;;;3.38;;
26253;SDS011;53339;51.378;0.094;2023-07-22T04:43:10;5.35;;;2.58;;
26253;SDS011;53339;51.378;0.094;2023-07-22T04:45:50;4.75;;;2.40;;
26253;SDS011;53339;51.378;0.094;2023-07-22T04:48:29;6.75;;;3.38;;
26253;SDS011;53339;51.378;0.094;2023-07-22T04:51:07;5.22;;;2.92;;
26253;SDS011;53339;51.378;0.094;2023-07-22T04:53:51;3.95;;;2.80;;
26253;SDS011;53339;51.378;0.094;2023-07-22T04:56:23;4.25;;;2.65;;
26253;SDS011;53339;51.378;0.094;2023-07-22T04:59:00;5.10;;;1.75;;
26253;SDS011;53339;51.378;0.094;2023-07-22T05:01:36;4.05;;;2.10;;
26253;SDS011;53339;51.378;0.094;2023-07-22T05:04:05;4.30;;;1.52;;
26253;SDS011;53339;51.378;0.094;2023-07-22T05:06:35;4.60;;;2.63;;
26253;SDS011;53339;51.378;0.094;2023-07-22T05:09:10;3.75;;;1.65;;
26253;SDS011;53339;51.378;0.094;2023-07-22T05:11:50;4.93;;;3.25;;
26253;SDS011;53339;51.378;0.094;2023-07-22T05:14:22;4.13;;;2.75;;
26253;SDS011;53339;51.378;0.094;2023-07-22T05:17:01;3.40;;;2.25;;
26253;SDS011;53339;51.378;0.094;2023-07-22T05:19:34;4.45;;;3.03;;
26253;SDS011;53339;51.378;0.094;2023-07-22T05:22:04;5.45;;;2.88;;
26253;SDS011;53339;51.378;0.094;2023-07-22T05:24:51;3.83;;;2.42;;
26253;SDS011;53339;51.378;0.094;2023-07-22T05:27:33;4.88;;;3.10;;
26253;SDS011;53339;51.378;0.094;2023-07-22T05:30:07;3.80;;;2.85;;
26253;SDS011;53339;51.378;0.094;2023-07-22T05:32:56;3.95;;;2.63;;
26253;SDS011;53339;51.378;0.094;2023-07-22T05:35:26;3.78;;;2.40;;
26253;SDS011;53339;51.378;0.094;2023-07-22T05:38:13;3.67;;;2.35;;
26253;SDS011;53339;51.378;0.094;2023-07-22T05:41:04;3.58;;;2.25;;
26253;SDS011;53339;51.378;0.094;2023-07-22T05:43:38;3.50;;;2.58;;
26253;SDS011;53339;51.378;0.094;2023-07-22T05:46:23;3.05;;;2.28;;
26253;SDS011;53339;51.378;0.094;2023-07-22T05:49:05;3.95;;;2.58;;
26253;SDS011;53339;51.378;0.094;2023-07-22T05:51:34;5.50;;;3.30;;
26253;SDS011;53339;51.378;0.094;2023-07-22T05:54:11;2.80;;;2.60;;
26253;SDS011;53339;51.378;0.094;2023-07-22T05:56:44;4.32;;;2.65;;
26253;SDS011;53339;51.378;0.094;2023-07-22T05:59:20;4.53;;;2.35;;
26253;SDS011;53339;51.378;0.094;2023-07-22T06:01:51;5.10;;;2.70;;
26253;SDS011;53339;51.378;0.094;2023-07-22T06:04:34;2.67;;;2.03;;
26253;SDS011;53339;51.378;0.094;2023-07-22T06:07:19;2.85;;;2.05;;
26253;SDS011;53339;51.378;0.094;2023-07-22T06:10:11;5.78;;;2.53;;
26253;SDS011;53339;51.378;0.094;2023-07-22T06:12:42;4.20;;;3.03;;
26253;SDS011;53339;51.378;0.094;2023-07-22T06:15:13;2.60;;;1.17;;
26253;SDS011;53339;51.378;0.094;2023-07-22T06:17:44;4.65;;;2.40;;
26253;SDS011;53339;51.378;0.094;2023-07-22T06:20:12;3.40;;;3.10;;
26253;SDS011;53339;51.378;0.094;2023-07-22T06:22:41;4.93;;;2.97;;
26253;SDS011;53339;51.378;0.094;2023-07-22T06:25:14;4.07;;;2.40;;
26253;SDS011;53339;51.378;0.094;2023-07-22T06:27:45;4.45;;;2.30;;
26253;SDS011;53339;51.378;0.094;2023-07-22T06:30:15;3.60;;;2.90;;
26253;SDS011;53339;51.378;0.094;2023-07-22T06:32:46;5.07;;;3.25;;
26253;SDS011;53339;51.378;0.094;2023-07-22T06:35:21;9.43;;;3.33;;
26253;SDS011;53339;51.378;0.094;2023-07-22T06:37:52;8.20;;;3.17;;
26253;SDS011;53339;51.378;0.094;2023-07-22T06:40:24;5.95;;;2.83;;
26253;SDS011;53339;51.378;0.094;2023-07-22T06:42:53;5.00;;;1.65;;
26253;SDS011;53339;51.378;0.094;2023-07-22T06:45:23;4.05;;;3.03;;
26253;SDS011;53339;51.378;0.094;2023-07-22T06:47:55;3.55;;;1.63;;
26253;SDS011;53339;51.378;0.094;2023-07-22T06:50:23;5.15;;;2.72;;
26253;SDS011;53339;51.378;0.094;2023-07-22T06:52:55;5.75;;;3.35;;
26253;SDS011;53339;51.378;0.094;2023-07-22T06:55:33;3.75;;;2.72;;
26253;SDS011;53339;51.378;0.094;2023-07-22T06:58:02;4.75;;;2.90;;
26253;SDS011;53339;51.378;0.094;2023-07-22T07:00:30;4.57;;;1.80;;
26253;SDS011;53339;51.378;0.094;2023-07-22T07:02:59;5.95;;;3.83;;
26253;SDS011;53339;51.378;0.094;2023-07-22T07:05:28;4.70;;;2.67;;
26253;SDS011;53339;51.378;0.094;2023-07-22T07:08:00;4.55;;;3.05;;
26253;SDS011;53339;51.378;0.094;2023-07-22T07:10:36;4.35;;;2.47;;
26253;SDS011;53339;51.378;0.094;2023-07-22T07:13:12;8.20;;;3.05;;
26253;SDS011;53339;51.378;0.094;2023-07-22T07:15:51;6.55;;;4.00;;
26253;SDS011;53339;51.378;0.094;2023-07-22T07:18:23;4.45;;;3.22;;
26253;SDS011;53339;51.378;0.094;2023-07-22T07:20:54;4.97;;;3.35;;
26253;SDS011;53339;51.378;0.094;2023-07-22T07:23:37;5.10;;;3.30;;
26253;SDS011;53339;51.378;0.094;2023-07-22T07:26:07;5.53;;;3.80;;
26253;SDS011;53339;51.378;0.094;2023-07-22T07:28:38;4.45;;;3.25;;
26253;SDS011;53339;51.378;0.094;2023-07-22T07:31:14;4.55;;;1.30;;
26253;SDS011;53339;51.378;0.094;2023-07-22T07:33:42;6.00;;;3.67;;
26253;SDS011;53339;51.378;0.094;2023-07-22T07:36:15;3.35;;;2.42;;
26253;SDS011;53339;51.378;0.094;2023-07-22T07:38:53;4.60;;;2.47;;
26253;SDS011;53339;51.378;0.094;2023-07-22T07:41:22;3.03;;;2.70;;
26253;SDS011;53339;51.378;0.094;2023-07-22T07:43:57;4.05;;;2.75;;
26253;SDS011;53339;51.378;0.094;2023-07-22T07:46:30;3.33;;;2.92;;
26253;SDS011;53339;51.378;0.094;2023-07-22T07:49:01;4.75;;;2.53;;
26253;SDS011;53339;51.378;0.094;2023-07-22T07:51:40;3.17;;;2.20;;
26253;SDS011;53339;51.378;0.094;2023-07-22T07:54:12;3.58;;;2.63;;
26253;SDS011;53339;51.378;0.094;2023-07-22T07:56:48;3.00;;;2.55;;
26253;SDS011;53339;51.378;0.094;2023-07-22T07:59:28;2.85;;;2.58;;
26253;SDS011;53339;51.378;0.094;2023-07-22T08:01:59;3.13;;;2.65;;
26253;SDS011;53339;51.378;0.094;2023-07-22T08:04:41;3.40;;;1.73;;
26253;SDS011;53339;51.378;0.094;2023-07-22T08:07:15;3.55;;;2.30;;
26253;SDS011;53339;51.378;0.094;2023-07-22T08:10:17;3.20;;;2.42;;
26253;SDS011;53339;51.378;0.094;2023-07-22T08:12:47;5.32;;;2.63;;
26253;SDS011;53339;51.378;0.094;2023-07-22T08:15:17;2.88;;;2.30;;
26253;SDS011;53339;51.378;0.094;2023-07-22T08:17:53;4.35;;;2.33;;
26253;SDS011;53339;51.378;0.094;2023-07-22T08:20:30;3.92;;;2.38;;
26253;SDS011;53339;51.378;0.094;2023-07-22T08:23:00;5.53;;;2.70;;
26253;SDS011;53339;51.378;0.094;2023-07-22T08:25:29;3.38;;;2.63;;
26253;SDS011;53339;51.378;0.094;2023-07-22T08:27:58;3.80;;;2.25;;
26253;SDS011;53339;51.378;0.094;2023-07-22T08:30:27;3.55;;;2.13;;
26253;SDS011;53339;51.378;0.094;2023-07-22T08:32:59;2.65;;;2.28;;
26253;SDS011;53339;51.378;0.094;2023-07-22T08:35:35;3.97;;;0.85;;
26253;SDS011;53339;51.378;0.094;2023-07-22T08:38:14;5.57;;;3.88;;
26253;SDS011;53339;51.378;0.094;2023-07-22T08:40:49;2.58;;;2.22;;
26253;SDS011;53339;51.378;0.094;2023-07-22T08:43:20;3.22;;;2.00;;
26253;SDS011;53339;51.378;0.094;2023-07-22T08:45:51;2.25;;;1.95;;
26253;SDS011;53339;51.378;0.094;2023-07-22T08:48:30;1.98;;;1.77;;
26253;SDS011;53339;51.378;0.094;2023-07-22T08:51:13;3.60;;;2.67;;
26253;SDS011;53339;51.378;0.094;2023-07-22T08:53:45;7.80;;;1.02;;
26253;SDS011;53339;51.378;0.094;2023-07-22T08:56:31;4.13;;;2.70;;
26253;SDS011;53339;51.378;0.094;2023-07-22T08:59:00;2.78;;;2.08;;
26253;SDS011;53339;51.378;0.094;2023-07-22T09:01:32;3.65;;;0.93;;
26253;SDS011;53339;51.378;0.094;2023-07-22T09:04:14;2.63;;;2.20;;
26253;SDS011;53339;51.378;0.094;2023-07-22T09:06:42;6.10;;;2.53;;
26253;SDS011;53339;51.378;0.094;2023-07-22T09:09:12;4.35;;;2.63;;
26253;SDS011;53339;51.378;0.094;2023-07-22T09:11:55;3.08;;;1.13;;
26253;SDS011;53339;51.378;0.094;2023-07-22T09:14:26;4.55;;;2.60;;
26253;SDS011;53339;51.378;0.094;2023-07-22T09:17:03;4.35;;;2.78;;
26253;SDS011;53339;51.378;0.094;2023-07-22T09:19:33;4.13;;;2.80;;
26253;SDS011;53339;51.378;0.094;2023-07-22T09:22:18;3.65;;;1.13;;
26253;SDS011;53339;51.378;0.094;2023-07-22T09:25:18;4.65;;;3.10;;
26253;SDS011;53339;51.378;0.094;2023-07-22T09:27:53;5.55;;;2.55;;
26253;SDS011;53339;51.378;0.094;2023-07-22T09:30:35;7.40;;;3.40;;
26253;SDS011;53339;51.378;0.094;2023-07-22T09:33:07;3.08;;;2.78;;
26253;SDS011;53339;51.378;0.094;2023-07-22T09:35:48;7.05;;;3.10;;
26253;SDS011;53339;51.378;0.094;2023-07-22T09:38:23;3.30;;;1.90;;
26253;SDS011;53339;51.378;0.094;2023-07-22T09:40:52;5.28;;;2.60;;
26253;SDS011;53339;51.378;0.094;2023-07-22T09:43:24;4.78;;;2.72;;
26253;SDS011;53339;51.378;0.094;2023-07-22T09:46:06;5.97;;;2.20;;
26253;SDS011;53339;51.378;0.094;2023-07-22T09:48:52;5.10;;;3.05;;
26253;SDS011;53339;51.378;0.094;2023-07-22T09:51:22;3.83;;;1.30;;
26253;SDS011;53339;51.378;0.094;2023-07-22T09:53:59;6.03;;;3.38;;
26253;SDS011;53339;51.378;0.094;2023-07-22T09:56:32;3.75;;;2.55;;
26253;SDS011;53339;51.378;0.094;2023-07-22T09:59:14;3.78;;;2.95;;
26253;SDS011;53339;51.378;0.094;2023-07-22T10:01:50;3.50;;;1.55;;
26253;SDS011;53339;51.378;0.094;2023-07-22T10:04:21;3.05;;;1.17;;
26253;SDS011;53339;51.378;0.094;2023-07-22T10:06:53;6.47;;;3.10;;
26253;SDS011;53339;51.378;0.094;2023-07-22T10:09:39;4.03;;;2.55;;
26253;SDS011;53339;51.378;0.094;2023-07-22T10:12:20;4.20;;;2.67;;
26253;SDS011;53339;51.378;0.094;2023-07-22T10:14:48;4.55;;;2.45;;
26253;SDS011;53339;51.378;0.094;2023-07-22T10:20:05;3.20;;;2.40;;
26253;SDS011;53339;51.378;0.094;2023-07-22T10:22:44;5.82;;;3.13;;
26253;SDS011;53339;51.378;0.094;2023-07-22T10:25:17;5.57;;;2.90;;
26253;SDS011;53339;51.378;0.094;2023-07-22T10:27:48;3.45;;;2.78;;
26253;SDS011;53339;51.378;0.094;2023-07-22T10:30:20;4.95;;;2.65;;
26253;SDS011;53339;51.378;0.094;2023-07-22T10:32:51;2.90;;;2.60;;
26253;SDS011;53339;51.378;0.094;2023-07-22T10:38:12;5.97;;;2.65;;
26253;SDS011;53339;51.378;0.094;2023-07-22T10:40:46;4.20;;;3.47;;
26253;SDS011;53339;51.378;0.094;2023-07-22T10:43:27;3.60;;;2.75;;
26253;SDS011;53339;51.378;0.094;2023-07-22T10:48:42;4.65;;;2.25;;
26253;SDS011;53339;51.378;0.094;2023-07-22T10:51:15;3.33;;;2.58;;
26253;SDS011;53339;51.378;0.094;2023-07-22T10:53:48;3.78;;;3.35;;
26253;SDS011;53339;51.378;0.094;2023-07-22T10:56:19;5.20;;;1.10;;
26253;SDS011;53339;51.378;0.094;2023-07-22T11:04:09;5.13;;;3.72;;
26253;SDS011;53339;51.378;0.094;2023-07-22T11:09:35;5.40;;;3.08;;
26253;SDS011;53339;51.378;0.094;2023-07-22T11:14:46;4.75;;;2.38;;
26253;SDS011;53339;51.378;0.094;2023-07-22T11:17:37;4.47;;;2.75;;
26253;SDS011;53339;51.378;0.094;2023-07-22T11:20:24;4.30;;;2.50;;
26253;SDS011;53339;51.378;0.094;2023-07-22T11:23:07;3.17;;;2.17;;
26253;SDS011;53339;51.378;0.094;2023-07-22T11:25:36;4.30;;;3.25;;
26253;SDS011;53339;51.378;0.094;2023-07-22T11:28:07;4.38;;;2.75;;
26253;SDS011;53339;51.378;0.094;2023-07-22T11:30:35;3.53;;;3.13;;
26253;SDS011;53339;51.378;0.094;2023-07-22T11:33:04;4.07;;;3.03;;
26253;SDS011;53339;51.378;0.094;2023-07-22T11:35:38;2.95;;;1.95;;
26253;SDS011;53339;51.378;0.094;2023-07-22T11:38:13;3.70;;;2.38;;
26253;SDS011;53339;51.378;0.094;2023-07-22T11:40:42;3.50;;;2.63;;
26253;SDS011;53339;51.378;0.094;2023-07-22T11:43:10;3.75;;;2.17;;
26253;SDS011;53339;51.378;0.094;2023-07-22T11:45:40;4.25;;;2.92;;
26253;SDS011;53339;51.378;0.094;2023-07-22T11:48:10;4.70;;;3.88;;
26253;SDS011;53339;51.378;0.094;2023-07-22T11:50:41;3.92;;;1.10;;
26253;SDS011;53339;51.378;0.094;2023-07-22T11:53:21;4.45;;;3.08;;
26253;SDS011;53339;51.378;0.094;2023-07-22T11:56:02;4.43;;;2.75;;
26253;SDS011;53339;51.378;0.094;2023-07-22T11:58:33;5.88;;;2.33;;
26253;SDS011;53339;51.378;0.094;2023-07-22T12:01:10;3.47;;;2.97;;
26253;SDS011;53339;51.378;0.094;2023-07-22T12:03:39;5.38;;;3.30;;
26253;SDS011;53339;51.378;0.094;2023-07-22T12:06:08;3.00;;;2.60;;
26253;SDS011;53339;51.378;0.094;2023-07-22T12:08:43;4.97;;;2.75;;
26253;SDS011;53339;51.378;0.094;2023-07-22T12:11:21;3.08;;;1.00;;
26253;SDS011;53339;51.378;0.094;2023-07-22T12:14:10;8.90;;;3.42;;
26253;SDS011;53339;51.378;0.094;2023-07-22T12:16:42;4.45;;;3.47;;
26253;SDS011;53339;51.378;0.094;2023-07-22T12:19:11;4.40;;;3.47;;
26253;SDS011;53339;51.378;0.094;2023-07-22T12:21:46;5.55;;;3.20;;
26253;SDS011;53339;51.378;0.094;2023-07-22T12:24:23;6.90;;;3.47;;
26253;SDS011;53339;51.378;0.094;2023-07-22T12:26:55;4.00;;;2.63;;
26253;SDS011;53339;51.378;0.094;2023-07-22T12:29:23;6.65;;;3.53;;
26253;SDS011;53339;51.378;0.094;2023-07-22T12:31:53;5.47;;;2.95;;
26253;SDS011;53339;51.378;0.094;2023-07-22T12:34:27;6.78;;;3.38;;
26253;SDS011;53339;51.378;0.094;2023-07-22T12:36:56;4.22;;;3.28;;
26253;SDS011;53339;51.378;0.094;2023-07-22T12:39:25;6.75;;;3.67;;
26253;SDS011;53339;51.378;0.094;2023-07-22T12:41:53;6.68;;;4.05;;
26253;SDS011;53339;51.378;0.094;2023-07-22T12:44:25;5.78;;;4.57;;
26253;SDS011;53339;51.378;0.094;2023-07-22T12:47:02;6.45;;;4.00;;
26253;SDS011;53339;51.378;0.094;2023-07-22T12:49:31;5.80;;;2.35;;
26253;SDS011;53339;51.378;0.094;2023-07-22T12:51:59;6.93;;;3.75;;
26253;SDS011;53339;51.378;0.094;2023-07-22T12:54:32;8.10;;;2.47;;
26253;SDS011;53339;51.378;0.094;2023-07-22T12:57:00;9.05;;;4.75;;
26253;SDS011;53339;51.378;0.094;2023-07-22T12:59:29;5.07;;;1.77;;
26253;SDS011;53339;51.378;0.094;2023-07-22T13:01:57;6.53;;;1.92;;
26253;SDS011;53339;51.378;0.094;2023-07-22T13:04:28;8.82;;;4.68;;
26253;SDS011;53339;51.378;0.094;2023-07-22T13:06:58;7.78;;;5.43;;
26253;SDS011;53339;51.378;0.094;2023-07-22T13:09:28;5.55;;;2.13;;
26253;SDS011;53339;51.378;0.094;2023-07-22T13:11:57;5.28;;;2.03;;
26253;SDS011;53339;51.378;0.094;2023-07-22T13:14:27;6.95;;;3.88;;
26253;SDS011;53339;51.378;0.094;2023-07-22T13:16:59;5.85;;;2.38;;
26253;SDS011;53339;51.378;0.094;2023-07-22T13:19:28;5.43;;;3.33;;
26253;SDS011;53339;51.378;0.094;2023-07-22T13:21:56;8.70;;;4.05;;
26253;SDS011;53339;51.378;0.094;2023-07-22T13:24:24;5.70;;;3.40;;
26253;SDS011;53339;51.378;0.094;2023-07-22T13:26:56;7.95;;;2.90;;
26253;SDS011;53339;51.378;0.094;2023-07-22T13:29:26;8.27;;;4.28;;
26253;SDS011;53339;51.378;0.094;2023-07-22T13:31:59;9.45;;;2.65;;
26253;SDS011;53339;51.378;0.094;2023-07-22T13:34:27;12.05;;;3.80;;
26253;SDS011;53339;51.378;0.094;2023-07-22T13:39:27;9.95;;;4.80;;
26253;SDS011;53339;51.378;0.094;2023-07-22T13:41:58;9.63;;;3.40;;
26253;SDS011;53339;51.378;0.094;2023-07-22T13:44:28;8.80;;;5.10;;
26253;SDS011;53339;51.378;0.094;2023-07-22T13:47:07;7.68;;;4.55;;
26253;SDS011;53339;51.378;0.094;2023-07-22T13:49:36;11.07;;;5.45;;
26253;SDS011;53339;51.378;0.094;2023-07-22T13:52:08;10.70;;;5.97;;
26253;SDS011;53339;51.378;0.094;2023-07-22T13:54:36;8.55;;;4.47;;
26253;SDS011;53339;51.378;0.094;2023-07-22T13:57:12;10.32;;;5.63;;
26253;SDS011;53339;51.378;0.094;2023-07-22T13:59:40;9.77;;;5.07;;
26253;SDS011;53339;51.378;0.094;2023-07-22T14:02:10;9.70;;;5.75;;
26253;SDS011;53339;51.378;0.094;2023-07-22T14:04:39;8.80;;;5.05;;
26253;SDS011;53339;51.378;0.094;2023-07-22T14:07:08;11.07;;;5.53;;
26253;SDS011;53339;51.378;0.094;2023-07-22T14:09:39;9.60;;;5.35;;
26253;SDS011;53339;51.378;0.094;2023-07-22T14:12:12;8.80;;;3.15;;
26253;SDS011;53339;51.378;0.094;2023-07-22T14:14:40;10.52;;;4.68;;
26253;SDS011;53339;51.378;0.094;2023-07-22T14:19:43;6.75;;;2.30;;
26253;SDS011;53339;51.378;0.094;2023-07-22T14:22:12;7.85;;;3.47;;
26253;SDS011;53339;51.378;0.094;2023-07-22T14:24:43;9.40;;;2.72;;
26253;SDS011;53339;51.378;0.094;2023-07-22T14:27:11;8.05;;;3.65;;
26253;SDS011;53339;51.378;0.094;2023-07-22T14:29:41;11.60;;;4.57;;
26253;SDS011;53339;51.378;0.094;2023-07-22T14:32:09;9.45;;;5.20;;
26253;SDS011;53339;51.378;0.094;2023-07-22T14:34:38;7.50;;;4.20;;
26253;SDS011;53339;51.378;0.094;2023-07-22T14:39:35;6.30;;;3.70;;
26253;SDS011;53339;51.378;0.094;2023-07-22T14:42:04;7.20;;;4.30;;
26253;SDS011;53339;51.378;0.094;2023-07-22T14:44:36;7.68;;;3.03;;
26253;SDS011;53339;51.378;0.094;2023-07-22T14:47:12;7.55;;;2.85;;
26253;SDS011;53339;51.378;0.094;2023-07-22T14:49:41;5.35;;;2.13;;
26253;SDS011;53339;51.378;0.094;2023-07-22T14:52:11;7.05;;;4.75;;
26253;SDS011;53339;51.378;0.094;2023-07-22T14:54:39;12.20;;;5.80;;
26253;SDS011;53339;51.378;0.094;2023-07-22T14:57:08;7.47;;;2.63;;
26253;SDS011;53339;51.378;0.094;2023-07-22T14:59:37;8.55;;;3.53;;
26253;SDS011;53339;51.378;0.094;2023-07-22T15:02:06;8.73;;;4.25;;
26253;SDS011;53339;51.378;0.094;2023-07-22T15:04:35;6.93;;;2.45;;
26253;SDS011;53339;51.378;0.094;2023-07-22T15:07:06;9.55;;;3.03;;
26253;SDS011;53339;51.378;0.094;2023-07-22T15:09:41;11.60;;;3.45;;
26253;SDS011;53339;51.378;0.094;2023-07-22T15:12:13;10.82;;;3.38;;
26253;SDS011;53339;51.378;0.094;2023-07-22T15:14:44;9.23;;;4.43;;
26253;SDS011;53339;51.378;0.094;2023-07-22T15:17:13;9.82;;;3.80;;
26253;SDS011;53339;51.378;0.094;2023-07-22T15:19:44;14.20;;;5.82;;
26253;SDS011;53339;51.378;0.094;2023-07-22T15:22:13;12.38;;;4.15;;
26253;SDS011;53339;51.378;0.094;2023-07-22T15:24:44;13.38;;;4.05;;
26253;SDS011;53339;51.378;0.094;2023-07-22T15:27:12;12.13;;;6.05;;
26253;SDS011;53339;51.378;0.094;2023-07-22T15:29:41;14.63;;;5.72;;
26253;SDS011;53339;51.378;0.094;2023-07-22T15:32:15;11.00;;;6.13;;
26253;SDS011;53339;51.378;0.094;2023-07-22T15:34:43;13.43;;;3.13;;
26253;SDS011;53339;51.378;0.094;2023-07-22T15:37:12;11.30;;;3.70;;
26253;SDS011;53339;51.378;0.094;2023-07-22T15:39:40;14.48;;;5.57;;
26253;SDS011;53339;51.378;0.094;2023-07-22T15:42:09;11.23;;;2.97;;
26253;SDS011;53339;51.378;0.094;2023-07-22T15:44:37;9.90;;;4.18;;
26253;SDS011;53339;51.378;0.094;2023-07-22T15:47:05;12.57;;;4.97;;
26253;SDS011;53339;51.378;0.094;2023-07-22T15:49:38;9.68;;;3.20;;
26253;SDS011;53339;51.378;0.094;2023-07-22T15:52:09;15.20;;;4.05;;
26253;SDS011;53339;51.378;0.094;2023-07-22T15:54:41;9.05;;;3.03;;
26253;SDS011;53339;51.378;0.094;2023-07-22T15:57:09;9.25;;;3.33;;